sensor_id;sensor_type;location;lat;lon;timestamp;temperature;humidity
28773;DHT22;15925;51.222;5.678;2023-12-07T00:02:12;2.80;99.90
28773;DHT22;15925;51.222;5.678;2023-12-07T00:04:38;2.80;99.90
28773;DHT22;15925;51.222;5.678;2023-12-07T00:07:04;2.80;99.90
28773;DHT22;15925;51.222;5.678;2023-12-07T00:09:30;2.80;99.90
28773;DHT22;15925;51.222;5.678;2023-12-07T00:11:56;2.80;99.90
28773;DHT22;15925;51.222;5.678;2023-12-07T00:14:21;2.70;99.90
28773;DHT22;15925;51.222;5.678;2023-12-07T00:16:47;2.70;99.90
28773;DHT22;15925;51.222;5.678;2023-12-07T00:19:13;2.70;99.90
28773;DHT22;15925;51.222;5.678;2023-12-07T00:21:38;2.70;99.90
28773;DHT22;15925;51.222;5.678;2023-12-07T00:24:04;2.60;99.90
28773;DHT22;15925;51.222;5.678;2023-12-07T00:26:30;2.60;99.90
28773;DHT22;15925;51.222;5.678;2023-12-07T00:28:56;2.60;99.90
28773;DHT22;15925;51.222;5.678;2023-12-07T00:31:21;2.50;99.90
28773;DHT22;15925;51.222;5.678;2023-12-07T00:33:47;2.50;99.90
28773;DHT22;15925;51.222;5.678;2023-12-07T00:36:13;2.50;99.90
28773;DHT22;15925;51.222;5.678;2023-12-07T00:38:39;2.40;99.90
28773;DHT22;15925;51.222;5.678;2023-12-07T00:41:05;2.50;99.90
28773;DHT22;15925;51.222;5.678;2023-12-07T00:43:30;2.40;99.90
28773;DHT22;15925;51.222;5.678;2023-12-07T00:45:56;2.40;99.90
28773;DHT22;15925;51.222;5.678;2023-12-07T00:48:23;2.40;99.90
28773;DHT22;15925;51.222;5.678;2023-12-07T00:50:49;2.40;99.90
28773;DHT22;15925;51.222;5.678;2023-12-07T00:53:14;2.30;99.90
28773;DHT22;15925;51.222;5.678;2023-12-07T00:55:40;2.30;99.90
28773;DHT22;15925;51.222;5.678;2023-12-07T00:58:06;2.30;99.90
28773;DHT22;15925;51.222;5.678;2023-12-07T01:00:31;2.30;99.90
28773;DHT22;15925;51.222;5.678;2023-12-07T01:02:57;2.30;99.90
28773;DHT22;15925;51.222;5.678;2023-12-07T01:05:23;2.30;99.90
28773;DHT22;15925;51.222;5.678;2023-12-07T01:07:49;2.30;99.90
28773;DHT22;15925;51.222;5.678;2023-12-07T01:10:14;2.30;99.90
28773;DHT22;15925;51.222;5.678;2023-12-07T01:12:40;2.20;99.90
28773;DHT22;15925;51.222;5.678;2023-12-07T01:15:06;2.20;99.90
28773;DHT22;15925;51.222;5.678;2023-12-07T01:17:32;2.20;99.90
28773;DHT22;15925;51.222;5.678;2023-12-07T01:19:58;2.10;99.90
28773;DHT22;15925;51.222;5.678;2023-12-07T01:22:23;2.10;99.90
28773;DHT22;15925;51.222;5.678;2023-12-07T01:24:49;2.10;99.90
28773;DHT22;15925;51.222;5.678;2023-12-07T01:27:15;2.00;99.90
28773;DHT22;15925;51.222;5.678;2023-12-07T01:29:41;2.10;99.90
28773;DHT22;15925;51.222;5.678;2023-12-07T01:32:07;2.20;99.90
28773;DHT22;15925;51.222;5.678;2023-12-07T01:34:33;2.20;99.90
28773;DHT22;15925;51.222;5.678;2023-12-07T01:36:58;2.20;99.90
28773;DHT22;15925;51.222;5.678;2023-12-07T01:39:24;2.30;99.90
28773;DHT22;15925;51.222;5.678;2023-12-07T01:41:51;2.30;99.90
28773;DHT22;15925;51.222;5.678;2023-12-07T01:44:17;2.30;99.90
28773;DHT22;15925;51.222;5.678;2023-12-07T01:46:43;2.30;99.90
28773;DHT22;15925;51.222;5.678;2023-12-07T01:49:09;2.40;99.90
28773;DHT22;15925;51.222;5.678;2023-12-07T01:51:35;2.40;99.90
28773;DHT22;15925;51.222;5.678;2023-12-07T01:54:01;2.40;99.90
28773;DHT22;15925;51.222;5.678;2023-12-07T01:56:27;2.40;99.90
28773;DHT22;15925;51.222;5.678;2023-12-07T01:58:53;2.50;99.90
28773;DHT22;15925;51.222;5.678;2023-12-07T02:01:19;2.40;99.90
28773;DHT22;15925;51.222;5.678;2023-12-07T02:03:45;2.40;99.90
28773;DHT22;15925;51.222;5.678;2023-12-07T02:06:11;2.40;99.90
28773;DHT22;15925;51.222;5.678;2023-12-07T02:08:37;2.50;99.90
28773;DHT22;15925;51.222;5.678;2023-12-07T02:11:08;2.50;99.90
28773;DHT22;15925;51.222;5.678;2023-12-07T02:13:39;2.50;99.90
28773;DHT22;15925;51.222;5.678;2023-12-07T02:16:13;2.60;99.90
28773;DHT22;15925;51.222;5.678;2023-12-07T02:18:46;2.60;99.90
28773;DHT22;15925;51.222;5.678;2023-12-07T02:23:51;2.60;99.90
28773;DHT22;15925;51.222;5.678;2023-12-07T02:26:19;2.60;99.90
28773;DHT22;15925;51.222;5.678;2023-12-07T02:28:46;2.60;99.90
28773;DHT22;15925;51.222;5.678;2023-12-07T02:31:11;2.50;99.90
28773;DHT22;15925;51.222;5.678;2023-12-07T02:33:37;2.50;99.90
28773;DHT22;15925;51.222;5.678;2023-12-07T02:36:03;2.40;99.90
28773;DHT22;15925;51.222;5.678;2023-12-07T02:38:30;2.40;99.90
28773;DHT22;15925;51.222;5.678;2023-12-07T02:40:57;2.30;99.90
28773;DHT22;15925;51.222;5.678;2023-12-07T02:43:24;2.30;99.90
28773;DHT22;15925;51.222;5.678;2023-12-07T02:45:50;2.30;99.90
28773;DHT22;15925;51.222;5.678;2023-12-07T02:48:16;2.20;99.90
28773;DHT22;15925;51.222;5.678;2023-12-07T02:50:42;2.20;99.90
28773;DHT22;15925;51.222;5.678;2023-12-07T02:53:08;2.20;99.90
28773;DHT22;15925;51.222;5.678;2023-12-07T02:55:34;2.30;99.90
28773;DHT22;15925;51.222;5.678;2023-12-07T02:58:00;2.30;99.90
28773;DHT22;15925;51.222;5.678;2023-12-07T03:00:25;2.30;99.90
28773;DHT22;15925;51.222;5.678;2023-12-07T03:02:51;2.20;99.90
28773;DHT22;15925;51.222;5.678;2023-12-07T03:05:17;2.20;99.90
28773;DHT22;15925;51.222;5.678;2023-12-07T03:07:45;2.20;99.90
28773;DHT22;15925;51.222;5.678;2023-12-07T03:10:11;2.30;99.90
28773;DHT22;15925;51.222;5.678;2023-12-07T03:12:37;2.30;99.90
28773;DHT22;15925;51.222;5.678;2023-12-07T03:15:03;2.30;99.90
28773;DHT22;15925;51.222;5.678;2023-12-07T03:17:29;2.30;99.90
28773;DHT22;15925;51.222;5.678;2023-12-07T03:19:55;2.40;99.90
28773;DHT22;15925;51.222;5.678;2023-12-07T03:22:21;2.40;99.90
28773;DHT22;15925;51.222;5.678;2023-12-07T03:24:51;2.40;99.90
28773;DHT22;15925;51.222;5.678;2023-12-07T03:27:17;2.40;99.90
28773;DHT22;15925;51.222;5.678;2023-12-07T03:29:43;2.40;99.90
28773;DHT22;15925;51.222;5.678;2023-12-07T03:32:09;2.40;99.90
28773;DHT22;15925;51.222;5.678;2023-12-07T03:34:35;2.40;99.90
28773;DHT22;15925;51.222;5.678;2023-12-07T03:37:00;2.40;99.90
28773;DHT22;15925;51.222;5.678;2023-12-07T03:39:27;2.40;99.90
28773;DHT22;15925;51.222;5.678;2023-12-07T03:41:52;2.40;99.90
28773;DHT22;15925;51.222;5.678;2023-12-07T03:44:18;2.40;99.90
28773;DHT22;15925;51.222;5.678;2023-12-07T03:46:44;2.50;99.90
28773;DHT22;15925;51.222;5.678;2023-12-07T03:49:10;2.50;99.90
28773;DHT22;15925;51.222;5.678;2023-12-07T03:51:37;2.50;99.90
28773;DHT22;15925;51.222;5.678;2023-12-07T03:54:03;2.50;99.90
28773;DHT22;15925;51.222;5.678;2023-12-07T03:56:30;2.60;99.90
28773;DHT22;15925;51.222;5.678;2023-12-07T03:58:56;2.50;99.90
28773;DHT22;15925;51.222;5.678;2023-12-07T04:01:23;2.60;99.90
28773;DHT22;15925;51.222;5.678;2023-12-07T04:03:49;2.60;99.90
28773;DHT22;15925;51.222;5.678;2023-12-07T04:06:15;2.70;99.90
28773;DHT22;15925;51.222;5.678;2023-12-07T04:08:42;2.70;99.90
28773;DHT22;15925;51.222;5.678;2023-12-07T04:11:08;2.70;99.90
28773;DHT22;15925;51.222;5.678;2023-12-07T04:13:34;2.70;99.90
28773;DHT22;15925;51.222;5.678;2023-12-07T04:15:59;2.70;99.90
28773;DHT22;15925;51.222;5.678;2023-12-07T04:18:26;2.70;99.90
28773;DHT22;15925;51.222;5.678;2023-12-07T04:20:52;2.70;99.90
28773;DHT22;15925;51.222;5.678;2023-12-07T04:23:17;2.70;99.90
28773;DHT22;15925;51.222;5.678;2023-12-07T04:25:43;2.70;99.90
28773;DHT22;15925;51.222;5.678;2023-12-07T04:28:09;2.70;99.90
28773;DHT22;15925;51.222;5.678;2023-12-07T04:30:35;2.70;99.90
28773;DHT22;15925;51.222;5.678;2023-12-07T04:33:00;2.70;99.90
28773;DHT22;15925;51.222;5.678;2023-12-07T04:35:27;2.70;99.90
28773;DHT22;15925;51.222;5.678;2023-12-07T04:37:54;2.70;99.90
28773;DHT22;15925;51.222;5.678;2023-12-07T04:40:20;2.70;99.90
28773;DHT22;15925;51.222;5.678;2023-12-07T04:42:45;2.80;99.90
28773;DHT22;15925;51.222;5.678;2023-12-07T04:45:11;2.70;99.90
28773;DHT22;15925;51.222;5.678;2023-12-07T04:47:37;2.80;99.90
28773;DHT22;15925;51.222;5.678;2023-12-07T04:50:03;2.70;99.90
28773;DHT22;15925;51.222;5.678;2023-12-07T04:52:29;2.80;99.90
28773;DHT22;15925;51.222;5.678;2023-12-07T04:54:55;2.70;99.90
28773;DHT22;15925;51.222;5.678;2023-12-07T04:57:21;2.80;99.90
28773;DHT22;15925;51.222;5.678;2023-12-07T04:59:46;2.80;99.90
28773;DHT22;15925;51.222;5.678;2023-12-07T05:02:16;2.90;99.90
28773;DHT22;15925;51.222;5.678;2023-12-07T05:04:43;2.90;99.90
28773;DHT22;15925;51.222;5.678;2023-12-07T05:07:09;2.90;99.90
28773;DHT22;15925;51.222;5.678;2023-12-07T05:09:35;2.90;99.90
28773;DHT22;15925;51.222;5.678;2023-12-07T05:12:00;2.90;99.90
28773;DHT22;15925;51.222;5.678;2023-12-07T05:14:26;2.90;99.90
28773;DHT22;15925;51.222;5.678;2023-12-07T05:16:52;2.90;99.90
28773;DHT22;15925;51.222;5.678;2023-12-07T05:19:24;2.90;99.90
28773;DHT22;15925;51.222;5.678;2023-12-07T05:21:53;2.90;99.90
28773;DHT22;15925;51.222;5.678;2023-12-07T05:24:19;2.80;99.90
28773;DHT22;15925;51.222;5.678;2023-12-07T05:26:45;2.80;99.90
28773;DHT22;15925;51.222;5.678;2023-12-07T05:29:15;2.90;99.90
28773;DHT22;15925;51.222;5.678;2023-12-07T05:31:41;2.80;99.90
28773;DHT22;15925;51.222;5.678;2023-12-07T05:34:10;2.90;99.90
28773;DHT22;15925;51.222;5.678;2023-12-07T05:36:36;2.90;99.90
28773;DHT22;15925;51.222;5.678;2023-12-07T05:39:02;3.00;99.90
28773;DHT22;15925;51.222;5.678;2023-12-07T05:41:28;2.90;99.90
28773;DHT22;15925;51.222;5.678;2023-12-07T05:43:54;2.90;99.90
28773;DHT22;15925;51.222;5.678;2023-12-07T05:46:19;2.80;99.90
28773;DHT22;15925;51.222;5.678;2023-12-07T05:48:45;2.80;99.90
28773;DHT22;15925;51.222;5.678;2023-12-07T05:51:13;2.80;99.90
28773;DHT22;15925;51.222;5.678;2023-12-07T05:53:40;2.80;99.90
28773;DHT22;15925;51.222;5.678;2023-12-07T05:56:06;2.90;99.90
28773;DHT22;15925;51.222;5.678;2023-12-07T05:58:32;2.90;99.90
28773;DHT22;15925;51.222;5.678;2023-12-07T06:00:59;2.90;99.90
28773;DHT22;15925;51.222;5.678;2023-12-07T06:03:25;2.90;99.90
28773;DHT22;15925;51.222;5.678;2023-12-07T06:05:51;2.90;99.90
28773;DHT22;15925;51.222;5.678;2023-12-07T06:08:17;2.90;99.90
28773;DHT22;15925;51.222;5.678;2023-12-07T06:10:43;2.90;99.90
28773;DHT22;15925;51.222;5.678;2023-12-07T06:13:09;2.90;99.90
28773;DHT22;15925;51.222;5.678;2023-12-07T06:15:36;3.00;99.90
28773;DHT22;15925;51.222;5.678;2023-12-07T06:18:02;3.10;99.90
28773;DHT22;15925;51.222;5.678;2023-12-07T06:20:31;3.00;99.90
28773;DHT22;15925;51.222;5.678;2023-12-07T06:22:57;3.00;99.90
28773;DHT22;15925;51.222;5.678;2023-12-07T06:25:23;3.00;99.90
28773;DHT22;15925;51.222;5.678;2023-12-07T06:27:49;3.00;99.90
28773;DHT22;15925;51.222;5.678;2023-12-07T06:30:15;3.00;99.90
28773;DHT22;15925;51.222;5.678;2023-12-07T06:32:41;3.10;99.90
28773;DHT22;15925;51.222;5.678;2023-12-07T06:35:08;3.10;99.90
28773;DHT22;15925;51.222;5.678;2023-12-07T06:37:34;3.10;99.90
28773;DHT22;15925;51.222;5.678;2023-12-07T06:39:59;3.10;99.90
28773;DHT22;15925;51.222;5.678;2023-12-07T06:42:26;3.10;99.90
28773;DHT22;15925;51.222;5.678;2023-12-07T06:44:52;3.10;99.90
28773;DHT22;15925;51.222;5.678;2023-12-07T06:47:18;3.10;99.90
28773;DHT22;15925;51.222;5.678;2023-12-07T06:49:44;3.00;99.90
28773;DHT22;15925;51.222;5.678;2023-12-07T06:52:11;3.00;99.90
28773;DHT22;15925;51.222;5.678;2023-12-07T06:54:37;3.00;99.90
28773;DHT22;15925;51.222;5.678;2023-12-07T06:57:06;3.00;99.90
28773;DHT22;15925;51.222;5.678;2023-12-07T06:59:33;3.00;99.90
28773;DHT22;15925;51.222;5.678;2023-12-07T07:01:59;3.10;99.90
28773;DHT22;15925;51.222;5.678;2023-12-07T07:04:24;3.10;99.90
28773;DHT22;15925;51.222;5.678;2023-12-07T07:06:50;3.20;99.90
28773;DHT22;15925;51.222;5.678;2023-12-07T07:09:17;3.20;99.90
28773;DHT22;15925;51.222;5.678;2023-12-07T07:11:47;3.20;99.90
28773;DHT22;15925;51.222;5.678;2023-12-07T07:14:14;3.30;99.90
28773;DHT22;15925;51.222;5.678;2023-12-07T07:16:39;3.30;99.90
28773;DHT22;15925;51.222;5.678;2023-12-07T07:19:05;3.30;99.90
28773;DHT22;15925;51.222;5.678;2023-12-07T07:21:31;3.30;99.90
28773;DHT22;15925;51.222;5.678;2023-12-07T07:23:57;3.30;99.90
28773;DHT22;15925;51.222;5.678;2023-12-07T07:26:23;3.40;99.90
28773;DHT22;15925;51.222;5.678;2023-12-07T07:28:51;3.40;99.90
28773;DHT22;15925;51.222;5.678;2023-12-07T07:31:17;3.40;99.90
28773;DHT22;15925;51.222;5.678;2023-12-07T07:33:43;3.40;99.90
28773;DHT22;15925;51.222;5.678;2023-12-07T07:36:09;3.40;99.90
28773;DHT22;15925;51.222;5.678;2023-12-07T07:38:37;3.40;99.90
28773;DHT22;15925;51.222;5.678;2023-12-07T07:41:03;3.50;99.90
28773;DHT22;15925;51.222;5.678;2023-12-07T07:43:29;3.50;99.90
28773;DHT22;15925;51.222;5.678;2023-12-07T07:45:55;3.50;99.90
28773;DHT22;15925;51.222;5.678;2023-12-07T07:48:21;3.40;99.90
28773;DHT22;15925;51.222;5.678;2023-12-07T07:50:47;3.40;99.90
28773;DHT22;15925;51.222;5.678;2023-12-07T07:53:13;3.40;99.90
28773;DHT22;15925;51.222;5.678;2023-12-07T07:55:39;3.40;99.90
28773;DHT22;15925;51.222;5.678;2023-12-07T07:58:05;3.50;99.90
28773;DHT22;15925;51.222;5.678;2023-12-07T08:00:31;3.50;99.90
28773;DHT22;15925;51.222;5.678;2023-12-07T08:02:58;3.40;99.90
28773;DHT22;15925;51.222;5.678;2023-12-07T08:05:24;3.50;99.90
28773;DHT22;15925;51.222;5.678;2023-12-07T08:07:50;3.50;99.90
28773;DHT22;15925;51.222;5.678;2023-12-07T08:10:16;3.50;99.90
28773;DHT22;15925;51.222;5.678;2023-12-07T08:12:42;3.50;99.90
28773;DHT22;15925;51.222;5.678;2023-12-07T08:15:10;3.50;99.90
28773;DHT22;15925;51.222;5.678;2023-12-07T08:17:38;3.50;99.90
28773;DHT22;15925;51.222;5.678;2023-12-07T08:20:05;3.50;99.90
28773;DHT22;15925;51.222;5.678;2023-12-07T08:22:31;3.50;99.90
28773;DHT22;15925;51.222;5.678;2023-12-07T08:24:58;3.50;99.90
28773;DHT22;15925;51.222;5.678;2023-12-07T08:27:23;3.50;99.90
28773;DHT22;15925;51.222;5.678;2023-12-07T08:29:50;3.60;99.90
28773;DHT22;15925;51.222;5.678;2023-12-07T08:32:15;3.60;99.90
28773;DHT22;15925;51.222;5.678;2023-12-07T08:34:44;3.60;99.90
28773;DHT22;15925;51.222;5.678;2023-12-07T08:37:10;3.60;99.90
28773;DHT22;15925;51.222;5.678;2023-12-07T08:39:36;3.60;99.90
28773;DHT22;15925;51.222;5.678;2023-12-07T08:42:02;3.70;99.90
28773;DHT22;15925;51.222;5.678;2023-12-07T08:44:27;3.70;99.90
28773;DHT22;15925;51.222;5.678;2023-12-07T08:46:53;3.70;99.90
28773;DHT22;15925;51.222;5.678;2023-12-07T08:49:20;3.70;99.90
28773;DHT22;15925;51.222;5.678;2023-12-07T08:51:45;3.70;99.90
28773;DHT22;15925;51.222;5.678;2023-12-07T08:54:11;3.80;99.90
28773;DHT22;15925;51.222;5.678;2023-12-07T08:56:37;3.80;99.90
28773;DHT22;15925;51.222;5.678;2023-12-07T08:59:03;3.80;99.90
28773;DHT22;15925;51.222;5.678;2023-12-07T09:01:29;3.80;99.90
28773;DHT22;15925;51.222;5.678;2023-12-07T09:03:56;3.80;99.90
28773;DHT22;15925;51.222;5.678;2023-12-07T09:06:21;3.90;99.90
28773;DHT22;15925;51.222;5.678;2023-12-07T09:08:47;3.90;99.90
28773;DHT22;15925;51.222;5.678;2023-12-07T09:11:13;3.90;99.90
28773;DHT22;15925;51.222;5.678;2023-12-07T09:13:39;3.90;99.90
28773;DHT22;15925;51.222;5.678;2023-12-07T09:16:05;3.90;99.90
28773;DHT22;15925;51.222;5.678;2023-12-07T09:18:31;3.90;99.90
28773;DHT22;15925;51.222;5.678;2023-12-07T09:20:56;3.90;99.90
28773;DHT22;15925;51.222;5.678;2023-12-07T09:23:22;4.00;99.90
28773;DHT22;15925;51.222;5.678;2023-12-07T09:25:48;4.00;99.90
28773;DHT22;15925;51.222;5.678;2023-12-07T09:28:14;4.00;99.90
28773;DHT22;15925;51.222;5.678;2023-12-07T09:30:39;4.10;99.90
28773;DHT22;15925;51.222;5.678;2023-12-07T09:33:05;4.10;99.90
28773;DHT22;15925;51.222;5.678;2023-12-07T09:35:31;4.00;99.90
28773;DHT22;15925;51.222;5.678;2023-12-07T09:37:59;4.10;99.90
28773;DHT22;15925;51.222;5.678;2023-12-07T09:40:25;4.10;99.90
28773;DHT22;15925;51.222;5.678;2023-12-07T09:42:53;4.20;99.90
28773;DHT22;15925;51.222;5.678;2023-12-07T09:45:20;4.20;99.90
28773;DHT22;15925;51.222;5.678;2023-12-07T09:47:53;4.30;99.90
28773;DHT22;15925;51.222;5.678;2023-12-07T09:50:20;4.20;99.90
28773;DHT22;15925;51.222;5.678;2023-12-07T09:52:51;4.30;99.90
28773;DHT22;15925;51.222;5.678;2023-12-07T09:55:18;4.30;99.90
28773;DHT22;15925;51.222;5.678;2023-12-07T09:57:44;4.40;99.90
28773;DHT22;15925;51.222;5.678;2023-12-07T10:00:13;4.30;99.90
28773;DHT22;15925;51.222;5.678;2023-12-07T10:02:45;4.30;99.90
28773;DHT22;15925;51.222;5.678;2023-12-07T10:05:13;4.40;99.90
28773;DHT22;15925;51.222;5.678;2023-12-07T10:07:46;4.40;99.90
28773;DHT22;15925;51.222;5.678;2023-12-07T10:10:13;4.40;99.90
28773;DHT22;15925;51.222;5.678;2023-12-07T10:12:52;4.50;99.90
28773;DHT22;15925;51.222;5.678;2023-12-07T10:15:19;4.40;99.90
28773;DHT22;15925;51.222;5.678;2023-12-07T10:17:46;4.50;99.90
28773;DHT22;15925;51.222;5.678;2023-12-07T10:20:15;4.60;99.90
28773;DHT22;15925;51.222;5.678;2023-12-07T10:22:41;4.60;99.90
28773;DHT22;15925;51.222;5.678;2023-12-07T10:25:07;4.70;99.90
28773;DHT22;15925;51.222;5.678;2023-12-07T10:27:35;4.80;99.90
28773;DHT22;15925;51.222;5.678;2023-12-07T10:30:01;4.80;99.90
28773;DHT22;15925;51.222;5.678;2023-12-07T10:32:27;4.90;99.90
28773;DHT22;15925;51.222;5.678;2023-12-07T10:34:53;4.90;99.90
28773;DHT22;15925;51.222;5.678;2023-12-07T10:37:19;4.90;99.90
28773;DHT22;15925;51.222;5.678;2023-12-07T10:39:45;4.90;99.90
28773;DHT22;15925;51.222;5.678;2023-12-07T10:42:11;4.90;99.90
28773;DHT22;15925;51.222;5.678;2023-12-07T10:44:41;5.00;99.90
28773;DHT22;15925;51.222;5.678;2023-12-07T10:47:09;5.00;99.90
28773;DHT22;15925;51.222;5.678;2023-12-07T10:49:36;5.10;99.90
28773;DHT22;15925;51.222;5.678;2023-12-07T10:52:13;5.10;99.90
28773;DHT22;15925;51.222;5.678;2023-12-07T10:54:53;5.10;99.90
28773;DHT22;15925;51.222;5.678;2023-12-07T10:57:22;5.10;99.90
28773;DHT22;15925;51.222;5.678;2023-12-07T10:59:48;5.20;99.90
28773;DHT22;15925;51.222;5.678;2023-12-07T11:02:17;5.20;99.90
28773;DHT22;15925;51.222;5.678;2023-12-07T11:04:44;5.30;99.90
28773;DHT22;15925;51.222;5.678;2023-12-07T11:07:14;5.30;99.90
28773;DHT22;15925;51.222;5.678;2023-12-07T11:09:58;5.30;99.90
28773;DHT22;15925;51.222;5.678;2023-12-07T11:12:35;5.30;99.90
28773;DHT22;15925;51.222;5.678;2023-12-07T11:15:05;5.30;99.90
28773;DHT22;15925;51.222;5.678;2023-12-07T11:17:49;5.40;99.90
28773;DHT22;15925;51.222;5.678;2023-12-07T11:20:19;5.30;99.90
28773;DHT22;15925;51.222;5.678;2023-12-07T11:22:46;5.40;99.90
28773;DHT22;15925;51.222;5.678;2023-12-07T11:25:12;5.40;99.90
28773;DHT22;15925;51.222;5.678;2023-12-07T11:27:38;5.50;99.90
28773;DHT22;15925;51.222;5.678;2023-12-07T11:30:04;5.50;99.90
28773;DHT22;15925;51.222;5.678;2023-12-07T11:32:30;5.60;99.90
28773;DHT22;15925;51.222;5.678;2023-12-07T11:35:02;5.50;99.90
28773;DHT22;15925;51.222;5.678;2023-12-07T11:38:07;5.60;99.90
28773;DHT22;15925;51.222;5.678;2023-12-07T11:40:41;5.50;99.90
28773;DHT22;15925;51.222;5.678;2023-12-07T11:43:08;5.60;99.90
28773;DHT22;15925;51.222;5.678;2023-12-07T11:45:47;5.70;99.90
28773;DHT22;15925;51.222;5.678;2023-12-07T11:48:15;5.60;99.90
28773;DHT22;15925;51.222;5.678;2023-12-07T11:51:05;5.70;99.90
28773;DHT22;15925;51.222;5.678;2023-12-07T11:53:35;5.80;99.90
28773;DHT22;15925;51.222;5.678;2023-12-07T11:56:06;5.80;99.90
28773;DHT22;15925;51.222;5.678;2023-12-07T11:58:33;5.80;99.90
28773;DHT22;15925;51.222;5.678;2023-12-07T12:01:00;5.80;99.90
28773;DHT22;15925;51.222;5.678;2023-12-07T12:03:28;5.80;99.90
28773;DHT22;15925;51.222;5.678;2023-12-07T12:05:54;5.90;99.90
28773;DHT22;15925;51.222;5.678;2023-12-07T12:08:23;5.90;99.90
28773;DHT22;15925;51.222;5.678;2023-12-07T12:10:50;5.90;99.90
28773;DHT22;15925;51.222;5.678;2023-12-07T12:13:18;6.00;99.90
28773;DHT22;15925;51.222;5.678;2023-12-07T12:15:44;6.00;99.90
28773;DHT22;15925;51.222;5.678;2023-12-07T12:18:10;6.00;99.90
28773;DHT22;15925;51.222;5.678;2023-12-07T12:20:38;6.00;99.90
28773;DHT22;15925;51.222;5.678;2023-12-07T12:23:03;5.90;99.90
28773;DHT22;15925;51.222;5.678;2023-12-07T12:25:30;5.90;99.90
28773;DHT22;15925;51.222;5.678;2023-12-07T12:27:58;6.00;99.90
28773;DHT22;15925;51.222;5.678;2023-12-07T12:30:24;5.90;99.90
28773;DHT22;15925;51.222;5.678;2023-12-07T12:32:51;5.90;99.90
28773;DHT22;15925;51.222;5.678;2023-12-07T12:35:17;5.90;99.90
28773;DHT22;15925;51.222;5.678;2023-12-07T12:37:44;6.00;99.90
28773;DHT22;15925;51.222;5.678;2023-12-07T12:40:17;5.90;99.90
28773;DHT22;15925;51.222;5.678;2023-12-07T12:42:48;5.90;99.90
28773;DHT22;15925;51.222;5.678;2023-12-07T12:45:15;6.00;99.90
28773;DHT22;15925;51.222;5.678;2023-12-07T12:47:42;6.00;99.90
28773;DHT22;15925;51.222;5.678;2023-12-07T12:50:13;5.80;99.90
28773;DHT22;15925;51.222;5.678;2023-12-07T12:53:03;5.80;99.90
28773;DHT22;15925;51.222;5.678;2023-12-07T12:55:33;6.00;99.90
28773;DHT22;15925;51.222;5.678;2023-12-07T12:57:59;6.00;99.90
28773;DHT22;15925;51.222;5.678;2023-12-07T13:00:25;6.00;99.90
28773;DHT22;15925;51.222;5.678;2023-12-07T13:02:51;6.00;99.90
28773;DHT22;15925;51.222;5.678;2023-12-07T13:05:17;6.10;99.90
28773;DHT22;15925;51.222;5.678;2023-12-07T13:07:45;6.00;99.90
28773;DHT22;15925;51.222;5.678;2023-12-07T13:10:15;6.00;99.90
28773;DHT22;15925;51.222;5.678;2023-12-07T13:12:41;6.00;99.90
28773;DHT22;15925;51.222;5.678;2023-12-07T13:15:07;6.00;99.90
28773;DHT22;15925;51.222;5.678;2023-12-07T13:17:33;6.00;99.90
28773;DHT22;15925;51.222;5.678;2023-12-07T13:19:59;6.00;99.90
28773;DHT22;15925;51.222;5.678;2023-12-07T13:22:25;5.90;99.90
28773;DHT22;15925;51.222;5.678;2023-12-07T13:24:50;6.00;99.90
28773;DHT22;15925;51.222;5.678;2023-12-07T13:27:16;6.00;99.90
28773;DHT22;15925;51.222;5.678;2023-12-07T13:29:43;5.90;99.90
28773;DHT22;15925;51.222;5.678;2023-12-07T13:32:10;5.90;99.90
28773;DHT22;15925;51.222;5.678;2023-12-07T13:34:37;5.90;99.90
28773;DHT22;15925;51.222;5.678;2023-12-07T13:37:04;6.00;99.90
28773;DHT22;15925;51.222;5.678;2023-12-07T13:39:30;5.90;99.90
28773;DHT22;15925;51.222;5.678;2023-12-07T13:41:56;5.80;99.90
28773;DHT22;15925;51.222;5.678;2023-12-07T13:44:22;5.80;99.90
28773;DHT22;15925;51.222;5.678;2023-12-07T13:46:49;5.90;99.90
28773;DHT22;15925;51.222;5.678;2023-12-07T13:49:15;5.90;99.90
28773;DHT22;15925;51.222;5.678;2023-12-07T13:51:41;5.90;99.90
28773;DHT22;15925;51.222;5.678;2023-12-07T13:54:07;5.90;99.90
28773;DHT22;15925;51.222;5.678;2023-12-07T13:56:34;5.90;99.90
28773;DHT22;15925;51.222;5.678;2023-12-07T13:59:01;5.80;99.90
28773;DHT22;15925;51.222;5.678;2023-12-07T14:01:26;5.90;99.90
28773;DHT22;15925;51.222;5.678;2023-12-07T14:03:52;5.90;99.90
28773;DHT22;15925;51.222;5.678;2023-12-07T14:06:22;5.90;99.90
28773;DHT22;15925;51.222;5.678;2023-12-07T14:08:51;5.90;99.90
28773;DHT22;15925;51.222;5.678;2023-12-07T14:11:17;5.80;99.90
28773;DHT22;15925;51.222;5.678;2023-12-07T14:13:44;5.80;99.90
28773;DHT22;15925;51.222;5.678;2023-12-07T14:16:12;5.90;99.90
28773;DHT22;15925;51.222;5.678;2023-12-07T14:18:38;5.80;99.90
28773;DHT22;15925;51.222;5.678;2023-12-07T14:21:04;5.70;99.90
28773;DHT22;15925;51.222;5.678;2023-12-07T14:23:29;5.80;99.90
28773;DHT22;15925;51.222;5.678;2023-12-07T14:25:55;5.80;99.90
28773;DHT22;15925;51.222;5.678;2023-12-07T14:28:24;5.80;99.90
28773;DHT22;15925;51.222;5.678;2023-12-07T14:30:50;5.70;99.90
28773;DHT22;15925;51.222;5.678;2023-12-07T14:33:22;5.60;99.90
28773;DHT22;15925;51.222;5.678;2023-12-07T14:35:48;5.60;99.90
28773;DHT22;15925;51.222;5.678;2023-12-07T14:38:14;5.50;99.90
28773;DHT22;15925;51.222;5.678;2023-12-07T14:40:40;5.70;99.90
28773;DHT22;15925;51.222;5.678;2023-12-07T14:43:06;5.40;99.90
28773;DHT22;15925;51.222;5.678;2023-12-07T14:45:32;5.20;99.90
28773;DHT22;15925;51.222;5.678;2023-12-07T14:47:58;5.20;99.90
28773;DHT22;15925;51.222;5.678;2023-12-07T14:50:24;5.10;99.90
28773;DHT22;15925;51.222;5.678;2023-12-07T14:52:50;5.00;99.90
28773;DHT22;15925;51.222;5.678;2023-12-07T14:55:15;5.20;99.90
28773;DHT22;15925;51.222;5.678;2023-12-07T14:57:44;5.30;99.90
28773;DHT22;15925;51.222;5.678;2023-12-07T15:00:10;5.30;99.90
28773;DHT22;15925;51.222;5.678;2023-12-07T15:02:36;5.20;99.90
28773;DHT22;15925;51.222;5.678;2023-12-07T15:05:02;5.20;99.90
28773;DHT22;15925;51.222;5.678;2023-12-07T15:07:30;5.10;99.90
28773;DHT22;15925;51.222;5.678;2023-12-07T15:09:56;5.00;99.90
28773;DHT22;15925;51.222;5.678;2023-12-07T15:12:23;5.10;99.90
28773;DHT22;15925;51.222;5.678;2023-12-07T15:14:51;5.00;99.90
28773;DHT22;15925;51.222;5.678;2023-12-07T15:17:16;5.10;99.90
28773;DHT22;15925;51.222;5.678;2023-12-07T15:19:42;5.10;99.90
28773;DHT22;15925;51.222;5.678;2023-12-07T15:22:11;5.10;99.90
28773;DHT22;15925;51.222;5.678;2023-12-07T15:24:37;5.20;99.90
28773;DHT22;15925;51.222;5.678;2023-12-07T15:27:05;5.10;99.90
28773;DHT22;15925;51.222;5.678;2023-12-07T15:29:32;5.10;99.90
28773;DHT22;15925;51.222;5.678;2023-12-07T15:31:59;5.00;99.90
28773;DHT22;15925;51.222;5.678;2023-12-07T15:34:25;5.00;99.90
28773;DHT22;15925;51.222;5.678;2023-12-07T15:36:52;5.00;99.90
28773;DHT22;15925;51.222;5.678;2023-12-07T15:39:17;5.00;99.90
28773;DHT22;15925;51.222;5.678;2023-12-07T15:41:44;5.00;99.90
28773;DHT22;15925;51.222;5.678;2023-12-07T15:44:09;5.00;99.90
28773;DHT22;15925;51.222;5.678;2023-12-07T15:46:35;5.00;99.90